createdAt,value
2018-05-03T00:01:00.947Z,5.80
2018-05-03T00:03:29.745Z,4.90
2018-05-03T00:05:58.418Z,5.57
2018-05-03T00:08:27.010Z,5.50
2018-05-03T00:10:56.194Z,5.67
2018-05-03T00:13:24.860Z,5.50
2018-05-03T00:15:53.898Z,5.23
2018-05-03T00:18:22.234Z,4.97
2018-05-03T00:20:50.444Z,4.90
2018-05-03T00:23:19.526Z,5.13
2018-05-03T00:25:48.215Z,5.60
2018-05-03T00:28:16.490Z,6.10
2018-05-03T00:30:44.871Z,4.90
2018-05-03T00:33:13.278Z,6.23
2018-05-03T00:35:42.038Z,5.27
2018-05-03T00:38:10.320Z,5.20
2018-05-03T00:40:40.043Z,5.33
2018-05-03T00:43:08.403Z,4.07
2018-05-03T00:45:37.496Z,5.10
2018-05-03T00:48:05.994Z,5.90
2018-05-03T00:50:34.260Z,6.70
2018-05-03T00:53:02.514Z,6.20
2018-05-03T00:55:32.444Z,6.80
2018-05-03T00:58:00.830Z,6.60
2018-05-03T01:00:29.107Z,5.83
2018-05-03T01:02:57.706Z,5.77
2018-05-03T01:05:26.559Z,5.80
2018-05-03T01:07:55.598Z,6.03
2018-05-03T01:10:23.987Z,5.70
2018-05-03T01:12:52.268Z,6.17
2018-05-03T01:15:20.606Z,5.10
2018-05-03T01:17:48.878Z,6.23
2018-05-03T01:20:17.397Z,5.30
2018-05-03T01:22:45.979Z,6.03
2018-05-03T01:25:14.986Z,6.20
2018-05-03T01:27:43.363Z,5.63
2018-05-03T01:30:11.738Z,5.10
2018-05-03T01:32:40.026Z,6.00
2018-05-03T01:35:26.206Z,5.30
2018-05-03T01:37:54.539Z,5.03
2018-05-03T01:40:23.579Z,5.17
2018-05-03T01:42:52.681Z,5.10
2018-05-03T01:45:21.442Z,5.70
2018-05-03T01:47:51.048Z,5.80
2018-05-03T01:50:19.366Z,5.60
2018-05-03T01:52:48.450Z,5.73
2018-05-03T01:55:16.848Z,5.50
2018-05-03T01:57:45.956Z,5.57
2018-05-03T02:00:14.222Z,5.97
2018-05-03T02:02:42.531Z,5.50
2018-05-03T02:05:10.796Z,5.30
2018-05-03T02:07:39.903Z,6.20
2018-05-03T02:10:08.196Z,6.73
2018-05-03T02:12:37.282Z,5.73
2018-05-03T02:15:06.430Z,5.40
2018-05-03T02:17:34.711Z,5.63
2018-05-03T02:20:03.023Z,5.70
2018-05-03T02:22:31.594Z,5.83
2018-05-03T02:25:00.631Z,5.90
2018-05-03T02:27:29.687Z,5.90
2018-05-03T02:29:59.605Z,5.07
2018-05-03T02:32:27.871Z,6.07
2018-05-03T02:34:56.154Z,5.50
2018-05-03T02:37:24.523Z,5.73
2018-05-03T02:39:53.515Z,5.57
2018-05-03T02:42:22.658Z,5.33
2018-05-03T02:44:52.006Z,5.07
2018-05-03T02:47:20.287Z,6.07
2018-05-03T02:49:49.932Z,5.27
2018-05-03T02:52:18.279Z,5.53
2018-05-03T02:54:46.562Z,5.20
2018-05-03T02:57:32.740Z,4.30
2018-05-03T03:00:24.583Z,6.00
2018-05-03T03:06:39.186Z,6.13
2018-05-03T03:09:30.886Z,5.90
2018-05-03T03:15:43.014Z,5.23
2018-05-03T03:18:34.835Z,6.80
2018-05-03T03:21:27.078Z,7.23
2018-05-03T03:24:18.840Z,7.00
2018-05-03T03:30:36.656Z,7.27
2018-05-03T03:33:22.935Z,8.80
2018-05-03T03:36:10.838Z,7.73
2018-05-03T03:41:52.835Z,7.13
2018-05-03T03:44:39.231Z,6.90
2018-05-03T03:47:08.457Z,8.30
2018-05-03T03:49:37.026Z,7.97
2018-05-03T03:52:05.301Z,9.73
2018-05-03T03:54:33.587Z,8.87
2018-05-03T03:57:01.879Z,10.10
2018-05-03T03:59:30.948Z,9.77
2018-05-03T04:01:59.720Z,8.10
2018-05-03T04:04:29.252Z,9.47
2018-05-03T04:06:58.454Z,9.40
2018-05-03T04:09:27.134Z,10.37
2018-05-03T04:11:55.535Z,9.90
2018-05-03T04:14:23.890Z,10.07
2018-05-03T04:16:53.073Z,10.97
2018-05-03T04:19:39.399Z,11.13
2018-05-03T04:22:25.709Z,9.83
2018-05-03T04:25:11.907Z,10.40
2018-05-03T04:27:41.604Z,10.43
2018-05-03T04:30:10.712Z,11.37
2018-05-03T04:32:39.572Z,10.70
2018-05-03T04:35:07.885Z,10.70
2018-05-03T04:37:36.178Z,10.53
2018-05-03T04:40:04.899Z,11.57
2018-05-03T04:42:34.763Z,11.13
2018-05-03T04:45:03.571Z,11.53
2018-05-03T04:47:31.856Z,12.03
2018-05-03T04:50:00.151Z,11.77
2018-05-03T04:52:30.043Z,12.23
2018-05-03T04:54:59.405Z,12.97
2018-05-03T04:57:27.722Z,13.67
2018-05-03T04:59:57.666Z,13.47
2018-05-03T05:02:26.735Z,14.10
2018-05-03T05:04:55.399Z,12.93
2018-05-03T05:07:23.702Z,11.30
2018-05-03T05:09:52.527Z,12.47
2018-05-03T05:12:21.658Z,11.23
2018-05-03T05:14:50.218Z,13.67
2018-05-03T05:17:18.822Z,10.30
2018-05-03T05:19:47.210Z,8.10
2018-05-03T05:22:16.222Z,6.53
2018-05-03T05:24:45.360Z,5.90
2018-05-03T05:27:14.758Z,5.97
2018-05-03T05:29:44.481Z,3.87
2018-05-03T05:32:14.362Z,3.70
2018-05-03T05:34:43.263Z,4.03
2018-05-03T05:37:11.586Z,3.67
2018-05-03T05:39:40.221Z,3.67
2018-05-03T05:42:08.487Z,3.83
2018-05-03T05:44:36.769Z,3.70
2018-05-03T05:47:05.416Z,3.13
2018-05-03T05:49:33.827Z,2.90
2018-05-03T05:52:03.023Z,3.07
2018-05-03T05:54:31.410Z,2.73
2018-05-03T05:56:59.734Z,3.07
2018-05-03T05:59:28.793Z,2.80
2018-05-03T06:01:57.603Z,3.27
2018-05-03T06:04:27.147Z,4.60
2018-05-03T06:06:55.534Z,2.43
2018-05-03T06:09:24.322Z,2.57
2018-05-03T06:11:53.956Z,2.63
2018-05-03T06:14:22.265Z,3.40
2018-05-03T06:16:51.322Z,2.30
2018-05-03T06:19:19.810Z,2.90
2018-05-03T06:21:49.466Z,2.37
2018-05-03T06:24:18.514Z,2.80
2018-05-03T06:26:47.195Z,3.50
2018-05-03T06:29:15.461Z,2.80
2018-05-03T06:31:44.493Z,2.60
2018-05-03T06:34:13.357Z,2.70
2018-05-03T06:36:42.055Z,2.43
2018-05-03T06:39:10.322Z,2.20
2018-05-03T06:41:39.561Z,2.40
2018-05-03T06:44:08.080Z,4.20
2018-05-03T06:46:36.355Z,2.43
2018-05-03T06:49:04.652Z,3.10
2018-05-03T06:51:34.554Z,3.00
2018-05-03T06:54:03.277Z,2.57
2018-05-03T06:56:31.593Z,3.83
2018-05-03T06:59:00.646Z,2.37
2018-05-03T07:01:28.926Z,2.67
2018-05-03T07:03:57.473Z,2.30
2018-05-03T07:06:26.615Z,2.20
2018-05-03T07:08:55.518Z,2.27
2018-05-03T07:11:24.478Z,2.30
2018-05-03T07:13:52.760Z,2.60
2018-05-03T07:16:21.447Z,1.93
2018-05-03T07:18:50.145Z,2.37
2018-05-03T07:21:18.413Z,1.50
2018-05-03T07:23:46.774Z,2.33
2018-05-03T07:26:15.886Z,1.87
2018-05-03T07:28:44.181Z,2.33
2018-05-03T07:31:12.846Z,1.90
2018-05-03T07:33:43.246Z,2.23
2018-05-03T07:36:11.531Z,1.83
2018-05-03T07:38:41.202Z,1.70
2018-05-03T07:41:09.560Z,2.47
2018-05-03T07:43:38.393Z,1.70
2018-05-03T07:46:14.699Z,2.50
2018-05-03T07:48:42.986Z,2.63
2018-05-03T07:51:11.255Z,2.23
2018-05-03T07:53:40.298Z,2.30
2018-05-03T07:56:08.580Z,2.03
2018-05-03T07:58:37.864Z,2.20
2018-05-03T08:01:07.524Z,1.60
2018-05-03T08:03:35.794Z,1.80
2018-05-03T08:06:04.067Z,2.13
2018-05-03T08:08:33.298Z,1.93
2018-05-03T08:11:01.922Z,1.70
2018-05-03T08:13:31.374Z,2.33
2018-05-03T08:16:01.753Z,1.87
2018-05-03T08:18:30.411Z,2.20
2018-05-03T08:20:59.794Z,2.70
2018-05-03T08:23:29.151Z,2.10
2018-05-03T08:25:57.531Z,1.70
2018-05-03T08:28:26.678Z,1.67
2018-05-03T08:30:55.846Z,2.57
2018-05-03T08:33:24.887Z,2.70
2018-05-03T08:35:54.221Z,2.30
2018-05-03T08:38:23.210Z,2.70
2018-05-03T08:40:52.220Z,2.30
2018-05-03T08:43:22.483Z,1.50
2018-05-03T08:45:50.762Z,2.37
2018-05-03T08:48:19.671Z,2.20
2018-05-03T08:50:47.957Z,2.03
2018-05-03T08:53:17.490Z,2.07
2018-05-03T08:55:47.143Z,2.60
2018-05-03T08:58:15.770Z,1.90
2018-05-03T09:00:44.091Z,2.20
2018-05-03T09:03:13.222Z,1.70
2018-05-03T09:05:42.368Z,3.10
2018-05-03T09:08:12.958Z,1.80
2018-05-03T09:10:42.510Z,2.20
2018-05-03T09:13:13.419Z,2.10
2018-05-03T09:15:42.339Z,2.67
2018-05-03T09:18:13.075Z,2.70
2018-05-03T09:20:42.453Z,2.10
2018-05-03T09:23:11.535Z,2.73
2018-05-03T09:25:41.563Z,2.27
2018-05-03T09:28:10.631Z,1.80
2018-05-03T09:30:38.947Z,1.90
2018-05-03T09:33:07.219Z,2.43
2018-05-03T09:35:36.103Z,2.30
2018-05-03T09:38:04.571Z,2.80
2018-05-03T09:40:33.471Z,1.93
2018-05-03T09:43:03.129Z,2.93
2018-05-03T09:45:32.179Z,2.30
2018-05-03T09:48:01.472Z,2.90
2018-05-03T09:50:29.858Z,2.10
2018-05-03T09:52:58.127Z,2.47
2018-05-03T09:55:26.488Z,2.20
2018-05-03T09:57:55.914Z,1.93
2018-05-03T10:00:24.605Z,2.27
2018-05-03T10:02:52.979Z,2.33
2018-05-03T10:05:21.990Z,1.63
2018-05-03T10:07:51.418Z,2.17
2018-05-03T10:10:20.499Z,2.10
2018-05-03T10:12:48.882Z,2.00
2018-05-03T10:15:17.943Z,2.60
2018-05-03T10:17:46.264Z,2.30
2018-05-03T10:20:15.767Z,1.90
2018-05-03T10:22:44.481Z,1.77
2018-05-03T10:25:14.269Z,1.80
2018-05-03T10:27:43.842Z,1.93
2018-05-03T10:30:12.949Z,2.10
2018-05-03T10:32:41.218Z,1.80
2018-05-03T10:35:10.098Z,1.80
2018-05-03T10:37:38.418Z,1.63
2018-05-03T10:40:06.723Z,1.60
2018-05-03T10:42:37.630Z,1.60
2018-05-03T10:45:05.908Z,1.97
2018-05-03T10:47:34.609Z,1.50
2018-05-03T10:50:03.778Z,1.80
2018-05-03T10:52:32.146Z,2.90
2018-05-03T10:55:01.903Z,2.00
2018-05-03T10:57:31.865Z,1.30
2018-05-03T11:00:01.031Z,2.07
2018-05-03T11:02:30.103Z,1.50
2018-05-03T11:04:58.447Z,2.30
2018-05-03T11:07:26.946Z,3.43
2018-05-03T11:09:58.044Z,2.87
2018-05-03T11:12:27.000Z,2.30
2018-05-03T11:14:55.267Z,2.87
2018-05-03T11:17:23.579Z,2.23
2018-05-03T11:19:53.034Z,1.97
2018-05-03T11:22:22.939Z,2.53
2018-05-03T11:24:51.611Z,1.93
2018-05-03T11:27:20.014Z,2.10
2018-05-03T11:29:48.282Z,2.00
2018-05-03T11:32:16.548Z,2.30
2018-05-03T11:34:44.939Z,1.77
2018-05-03T11:37:13.647Z,1.60
2018-05-03T11:39:41.931Z,1.20
2018-05-03T11:42:11.019Z,1.90
2018-05-03T11:44:39.291Z,1.90
2018-05-03T11:47:08.275Z,1.80
2018-05-03T11:49:36.607Z,1.30
2018-05-03T11:52:05.673Z,1.90
2018-05-03T11:54:34.312Z,1.70
2018-05-03T11:57:03.218Z,1.70
2018-05-03T11:59:31.613Z,1.60
2018-05-03T12:01:59.890Z,2.03
2018-05-03T12:04:28.162Z,1.80
2018-05-03T12:06:56.488Z,1.60
2018-05-03T12:09:27.662Z,1.57
2018-05-03T12:11:57.054Z,2.00
2018-05-03T12:14:26.613Z,1.50
2018-05-03T12:16:55.251Z,1.33
2018-05-03T12:19:25.635Z,1.60
2018-05-03T12:21:54.107Z,1.47
2018-05-03T12:24:22.458Z,1.50
2018-05-03T12:26:50.764Z,1.00
2018-05-03T12:29:19.050Z,1.40
2018-05-03T12:31:47.366Z,1.20
2018-05-03T12:34:16.962Z,1.17
2018-05-03T12:36:46.827Z,1.37
2018-05-03T12:39:15.128Z,0.90
2018-05-03T12:41:43.394Z,1.20
2018-05-03T12:44:12.690Z,1.43
2018-05-03T12:46:40.971Z,0.97
2018-05-03T12:49:09.766Z,1.40
2018-05-03T12:51:39.306Z,1.30
2018-05-03T12:54:08.370Z,1.40
2018-05-03T12:56:37.199Z,1.33
2018-05-03T12:59:06.449Z,1.43
2018-05-03T13:01:34.724Z,1.87
2018-05-03T13:04:02.997Z,1.37
2018-05-03T13:06:31.480Z,1.43
2018-05-03T13:08:59.763Z,1.10
2018-05-03T13:11:28.954Z,0.70
2018-05-03T13:13:57.273Z,1.00
2018-05-03T13:16:26.442Z,1.23
2018-05-03T13:18:54.787Z,1.20
2018-05-03T13:21:23.842Z,2.00
2018-05-03T13:23:53.207Z,1.20
2018-05-03T13:26:21.479Z,1.50
2018-05-03T13:28:50.603Z,1.13
2018-05-03T13:31:18.889Z,1.30
2018-05-03T13:33:47.211Z,1.27
2018-05-03T13:36:17.066Z,1.23
2018-05-03T13:38:46.154Z,1.37
2018-05-03T13:41:14.524Z,1.23
2018-05-03T13:43:43.113Z,1.30
2018-05-03T13:46:12.384Z,1.43
2018-05-03T13:48:41.931Z,1.40
2018-05-03T13:51:10.678Z,1.30
2018-05-03T13:53:39.736Z,1.50
2018-05-03T13:56:09.027Z,1.60
2018-05-03T13:58:37.339Z,1.53
2018-05-03T14:01:05.624Z,0.90
2018-05-03T14:03:34.874Z,1.20
2018-05-03T14:06:03.206Z,1.53
2018-05-03T14:08:32.251Z,1.30
2018-05-03T14:11:00.733Z,1.80
2018-05-03T14:13:30.083Z,1.37
2018-05-03T14:15:58.424Z,1.27
2018-05-03T14:18:27.671Z,1.30
2018-05-03T14:20:56.765Z,1.63
2018-05-03T14:23:25.724Z,1.77
2018-05-03T14:25:54.052Z,1.40
2018-05-03T14:28:23.094Z,1.40
2018-05-03T14:30:52.415Z,1.20
2018-05-03T14:33:21.638Z,1.80
2018-05-03T14:35:50.686Z,1.50
2018-05-03T14:38:19.004Z,1.27
2018-05-03T14:40:48.290Z,1.20
2018-05-03T14:43:17.374Z,1.87
2018-05-03T14:45:45.711Z,1.37
2018-05-03T14:48:14.025Z,1.40
2018-05-03T14:50:42.308Z,1.60
2018-05-03T14:53:10.929Z,1.40
2018-05-03T14:55:40.558Z,1.67
2018-05-03T14:58:08.840Z,1.40
2018-05-03T15:00:37.417Z,1.70
2018-05-03T15:03:06.959Z,2.53
2018-05-03T15:05:35.779Z,1.20
2018-05-03T15:08:04.074Z,1.90
2018-05-03T15:10:32.481Z,1.73
2018-05-03T15:13:01.602Z,1.20
2018-05-03T15:15:31.430Z,1.60
2018-05-03T15:17:59.714Z,1.53
2018-05-03T15:20:27.999Z,1.73
2018-05-03T15:22:57.393Z,1.40
2018-05-03T15:25:25.671Z,1.23
2018-05-03T15:27:55.131Z,1.97
2018-05-03T15:30:23.440Z,1.70
2018-05-03T15:32:51.729Z,1.57
2018-05-03T15:35:20.017Z,1.60
2018-05-03T15:37:48.786Z,1.67
2018-05-03T15:40:17.066Z,1.10
2018-05-03T15:42:46.078Z,1.50
2018-05-03T15:45:14.862Z,1.40
2018-05-03T15:47:43.983Z,1.70
2018-05-03T15:50:12.483Z,1.40
2018-05-03T15:52:41.113Z,1.17
2018-05-03T15:55:10.947Z,1.20
2018-05-03T15:57:39.707Z,1.17
2018-05-03T16:00:09.607Z,1.63
2018-05-03T16:02:38.127Z,1.43
2018-05-03T16:05:07.311Z,1.77
2018-05-03T16:07:36.822Z,1.77
2018-05-03T16:10:05.091Z,1.33
2018-05-03T16:12:35.035Z,1.63
2018-05-03T16:15:04.442Z,1.60
2018-05-03T16:17:34.525Z,1.10
2018-05-03T16:20:03.313Z,1.60
2018-05-03T16:22:31.603Z,1.60
2018-05-03T16:25:00.095Z,1.20
2018-05-03T16:27:28.719Z,1.40
2018-05-03T16:29:57.774Z,1.50
2018-05-03T16:32:26.047Z,1.27
2018-05-03T16:34:54.342Z,1.53
2018-05-03T16:37:23.078Z,1.20
2018-05-03T16:39:52.747Z,1.30
2018-05-03T16:42:21.420Z,1.40
2018-05-03T16:44:49.696Z,1.20
2018-05-03T16:47:18.155Z,1.10
2018-05-03T16:49:47.057Z,1.13
2018-05-03T16:52:15.464Z,1.03
2018-05-03T16:54:43.935Z,1.23
2018-05-03T16:57:12.293Z,1.07
2018-05-03T16:59:40.603Z,1.47
2018-05-03T17:02:08.958Z,1.30
2018-05-03T17:04:37.331Z,0.83
2018-05-03T17:07:05.792Z,0.80
2018-05-03T17:09:34.067Z,1.20
2018-05-03T17:12:03.530Z,1.03
2018-05-03T17:14:32.577Z,1.00
2018-05-03T17:17:01.447Z,1.20
2018-05-03T17:19:32.713Z,1.13
2018-05-03T17:22:01.426Z,1.30
2018-05-03T17:24:29.736Z,1.00
2018-05-03T17:26:58.037Z,1.20
2018-05-03T17:29:27.092Z,1.33
2018-05-03T17:31:56.285Z,1.20
2018-05-03T17:34:24.572Z,1.20
2018-05-03T17:36:54.387Z,0.90
2018-05-03T17:39:22.695Z,1.20
2018-05-03T17:41:51.739Z,1.90
2018-05-03T17:44:20.805Z,1.07
2018-05-03T17:46:49.946Z,1.43
2018-05-03T17:49:18.763Z,1.20
2018-05-03T17:51:47.691Z,1.23
2018-05-03T17:54:15.981Z,1.03
2018-05-03T17:56:44.280Z,1.50
2018-05-03T17:59:12.703Z,1.40
2018-05-03T18:01:41.197Z,1.20
2018-05-03T18:04:11.687Z,1.10
2018-05-03T18:06:39.975Z,1.20
2018-05-03T18:09:09.590Z,1.37
2018-05-03T18:11:38.213Z,0.90
2018-05-03T18:14:07.051Z,1.27
2018-05-03T18:16:35.443Z,1.20
2018-05-03T18:19:04.212Z,1.30
2018-05-03T18:21:34.143Z,1.40
2018-05-03T18:24:02.742Z,1.50
2018-05-03T18:26:31.798Z,1.37
2018-05-03T18:29:00.089Z,2.30
2018-05-03T18:31:28.880Z,0.90
2018-05-03T18:33:57.143Z,1.07
2018-05-03T18:36:25.819Z,1.03
2018-05-03T18:38:54.795Z,1.83
2018-05-03T18:41:23.105Z,1.63
2018-05-03T18:43:51.589Z,1.60
2018-05-03T18:46:20.324Z,1.93
2018-05-03T18:48:49.352Z,1.60
2018-05-03T18:51:18.162Z,1.87
2018-05-03T18:53:47.726Z,1.63
2018-05-03T18:56:16.779Z,1.90
2018-05-03T18:58:45.883Z,1.50
2018-05-03T19:01:14.904Z,1.97
2018-05-03T19:03:44.092Z,1.50
2018-05-03T19:06:13.766Z,1.60
2018-05-03T19:08:42.342Z,2.03
2018-05-03T19:11:11.176Z,1.37
2018-05-03T19:13:40.623Z,1.83
2018-05-03T19:16:09.663Z,2.03
2018-05-03T19:18:39.190Z,2.10
2018-05-03T19:21:08.073Z,1.90
2018-05-03T19:23:37.240Z,2.03
2018-05-03T19:26:05.909Z,2.03
2018-05-03T19:28:34.570Z,2.17
2018-05-03T19:31:04.589Z,2.80
2018-05-03T19:33:34.120Z,1.60
2018-05-03T19:36:03.995Z,1.63
2018-05-03T19:38:32.551Z,2.10
2018-05-03T19:41:00.856Z,2.10
2018-05-03T19:43:30.040Z,1.90
2018-05-03T19:45:59.201Z,1.60
2018-05-03T19:48:27.906Z,1.57
2018-05-03T19:50:57.669Z,1.60
2018-05-03T19:53:28.009Z,1.50
2018-05-03T19:55:56.531Z,1.57
2018-05-03T19:58:26.659Z,1.60
2018-05-03T20:00:55.549Z,2.33
2018-05-03T20:03:23.910Z,2.03
2018-05-03T20:05:52.231Z,2.20
2018-05-03T20:08:24.308Z,2.00
2018-05-03T20:10:53.382Z,1.47
2018-05-03T20:13:22.493Z,2.00
2018-05-03T20:15:50.879Z,2.07
2018-05-03T20:18:20.599Z,1.80
2018-05-03T20:20:50.350Z,1.97
2018-05-03T20:23:20.420Z,1.80
2018-05-03T20:25:48.707Z,2.23
2018-05-03T20:28:17.918Z,2.10
2018-05-03T20:30:47.499Z,2.10
2018-05-03T20:33:15.776Z,2.07
2018-05-03T20:35:44.353Z,2.20
2018-05-03T20:38:12.639Z,2.90
2018-05-03T20:40:41.259Z,2.30
2018-05-03T20:43:10.722Z,2.10
2018-05-03T20:45:39.476Z,2.57
2018-05-03T20:48:08.387Z,2.10
2018-05-03T20:50:37.520Z,2.17
2018-05-03T20:53:07.347Z,1.77
2018-05-03T20:55:37.002Z,2.03
2018-05-03T20:58:05.286Z,2.57
2018-05-03T21:00:34.083Z,1.90
2018-05-03T21:03:03.303Z,2.33
2018-05-03T21:05:32.008Z,2.10
2018-05-03T21:08:01.086Z,1.97
2018-05-03T21:10:30.061Z,1.30
2018-05-03T21:12:58.406Z,1.80
2018-05-03T21:15:27.411Z,1.93
2018-05-03T21:17:56.194Z,2.87
2018-05-03T21:20:26.224Z,1.60
2018-05-03T21:22:55.395Z,1.60
2018-05-03T21:25:23.676Z,2.00
2018-05-03T21:27:51.940Z,2.00
2018-05-03T21:30:21.175Z,1.57
2018-05-03T21:32:49.714Z,1.87
2018-05-03T21:35:18.986Z,3.40
2018-05-03T21:37:47.953Z,2.10
2018-05-03T21:40:17.502Z,2.53
2018-05-03T21:42:48.092Z,1.43
2018-05-03T21:45:17.066Z,2.13
2018-05-03T21:47:45.669Z,1.57
2018-05-03T21:50:13.950Z,2.00
2018-05-03T21:52:42.418Z,1.97
2018-05-03T21:55:10.714Z,1.90
2018-05-03T21:57:41.848Z,1.97
2018-05-03T22:00:10.114Z,1.70
2018-05-03T22:02:39.540Z,1.50
2018-05-03T22:05:09.434Z,2.23
2018-05-03T22:07:38.254Z,1.43
2018-05-03T22:10:06.892Z,1.73
2018-05-03T22:12:35.298Z,2.23
2018-05-03T22:15:03.553Z,1.83
2018-05-03T22:17:32.480Z,3.00
2018-05-03T22:20:02.000Z,2.33
2018-05-03T22:22:30.268Z,2.27
2018-05-03T22:24:58.570Z,2.80
2018-05-03T22:27:27.739Z,2.60
2018-05-03T22:29:56.046Z,2.40
2018-05-03T22:32:24.687Z,2.00
2018-05-03T22:34:53.150Z,2.63
2018-05-03T22:37:22.329Z,1.80
2018-05-03T22:39:51.973Z,2.20
2018-05-03T22:42:20.265Z,1.93
2018-05-03T22:44:48.646Z,2.30
2018-05-03T22:47:16.954Z,2.60
2018-05-03T22:49:45.878Z,2.10
2018-05-03T22:52:15.393Z,3.30
2018-05-03T22:54:44.445Z,2.60
2018-05-03T22:57:13.063Z,2.83
2018-05-03T22:59:42.108Z,2.93
2018-05-03T23:02:10.370Z,2.93
2018-05-03T23:04:39.118Z,2.70
2018-05-03T23:07:08.618Z,2.40
2018-05-03T23:09:36.890Z,3.80
2018-05-03T23:12:05.170Z,3.07
2018-05-03T23:14:33.490Z,2.40
2018-05-03T23:17:02.143Z,3.10
2018-05-03T23:19:31.329Z,2.03
2018-05-03T23:21:59.725Z,2.50
2018-05-03T23:24:29.132Z,2.43
2018-05-03T23:26:58.277Z,2.53
2018-05-03T23:29:26.729Z,2.30
2018-05-03T23:31:55.700Z,3.10
2018-05-03T23:34:25.250Z,2.80
2018-05-03T23:36:53.519Z,2.77
2018-05-03T23:39:21.790Z,3.37
2018-05-03T23:41:50.343Z,2.63
2018-05-03T23:44:18.859Z,2.53
2018-05-03T23:46:48.181Z,2.90
2018-05-03T23:49:17.191Z,2.83
2018-05-03T23:51:46.077Z,2.77
2018-05-03T23:54:14.375Z,2.70
2018-05-03T23:56:42.716Z,2.43
2018-05-03T23:59:10.984Z,2.93
